sensor_id;sensor_type;location;lat;lon;timestamp;P1;durP1;ratioP1;P2;durP2;ratioP2
24644;SDS011;12780;45.502;9.146;2024-03-29T00:02:06;14.80;;;9.73;;
24644;SDS011;12780;45.502;9.146;2024-03-29T00:04:32;17.40;;;8.93;;
24644;SDS011;12780;45.502;9.146;2024-03-29T00:06:58;12.23;;;8.32;;
24644;SDS011;12780;45.502;9.146;2024-03-29T00:09:24;13.27;;;8.15;;
24644;SDS011;12780;45.502;9.146;2024-03-29T00:11:50;15.40;;;8.90;;
24644;SDS011;12780;45.502;9.146;2024-03-29T00:14:16;13.70;;;8.98;;
24644;SDS011;12780;45.502;9.146;2024-03-29T00:16:42;15.13;;;8.20;;
24644;SDS011;12780;45.502;9.146;2024-03-29T00:19:08;12.90;;;8.50;;
24644;SDS011;12780;45.502;9.146;2024-03-29T00:21:34;14.27;;;8.80;;
24644;SDS011;12780;45.502;9.146;2024-03-29T00:24:00;18.13;;;8.20;;
24644;SDS011;12780;45.502;9.146;2024-03-29T00:26:26;14.68;;;8.02;;
24644;SDS011;12780;45.502;9.146;2024-03-29T00:28:52;16.88;;;8.35;;
24644;SDS011;12780;45.502;9.146;2024-03-29T00:31:20;17.55;;;8.25;;
24644;SDS011;12780;45.502;9.146;2024-03-29T00:33:46;14.90;;;8.73;;
24644;SDS011;12780;45.502;9.146;2024-03-29T00:36:12;17.65;;;8.68;;
24644;SDS011;12780;45.502;9.146;2024-03-29T00:38:38;18.40;;;8.65;;
24644;SDS011;12780;45.502;9.146;2024-03-29T00:41:04;17.25;;;9.32;;
24644;SDS011;12780;45.502;9.146;2024-03-29T00:43:30;20.98;;;9.75;;
24644;SDS011;12780;45.502;9.146;2024-03-29T00:45:56;15.77;;;9.63;;
24644;SDS011;12780;45.502;9.146;2024-03-29T00:48:23;21.88;;;10.45;;
24644;SDS011;12780;45.502;9.146;2024-03-29T00:50:50;25.75;;;10.27;;
24644;SDS011;12780;45.502;9.146;2024-03-29T00:53:16;15.93;;;10.07;;
24644;SDS011;12780;45.502;9.146;2024-03-29T00:55:42;15.43;;;10.43;;
24644;SDS011;12780;45.502;9.146;2024-03-29T00:58:07;17.13;;;9.70;;
24644;SDS011;12780;45.502;9.146;2024-03-29T01:00:34;17.33;;;9.93;;
24644;SDS011;12780;45.502;9.146;2024-03-29T01:03:00;18.67;;;9.95;;
24644;SDS011;12780;45.502;9.146;2024-03-29T01:05:26;17.20;;;9.77;;
24644;SDS011;12780;45.502;9.146;2024-03-29T01:07:52;13.98;;;8.95;;
24644;SDS011;12780;45.502;9.146;2024-03-29T01:10:18;15.30;;;8.88;;
24644;SDS011;12780;45.502;9.146;2024-03-29T01:12:44;13.05;;;8.23;;
24644;SDS011;12780;45.502;9.146;2024-03-29T01:15:11;15.10;;;7.97;;
24644;SDS011;12780;45.502;9.146;2024-03-29T01:17:37;14.68;;;8.45;;
24644;SDS011;12780;45.502;9.146;2024-03-29T01:20:03;16.45;;;8.65;;
24644;SDS011;12780;45.502;9.146;2024-03-29T01:22:29;16.10;;;8.88;;
24644;SDS011;12780;45.502;9.146;2024-03-29T01:24:55;15.77;;;8.98;;
24644;SDS011;12780;45.502;9.146;2024-03-29T01:27:22;14.20;;;8.23;;
24644;SDS011;12780;45.502;9.146;2024-03-29T01:29:49;15.52;;;8.90;;
24644;SDS011;12780;45.502;9.146;2024-03-29T01:32:15;13.40;;;8.68;;
24644;SDS011;12780;45.502;9.146;2024-03-29T01:34:41;13.43;;;8.05;;
24644;SDS011;12780;45.502;9.146;2024-03-29T01:37:07;16.27;;;8.07;;
24644;SDS011;12780;45.502;9.146;2024-03-29T01:39:33;12.65;;;7.68;;
24644;SDS011;12780;45.502;9.146;2024-03-29T01:41:59;12.50;;;7.80;;
24644;SDS011;12780;45.502;9.146;2024-03-29T01:44:25;13.02;;;8.07;;
24644;SDS011;12780;45.502;9.146;2024-03-29T01:46:51;12.32;;;8.40;;
24644;SDS011;12780;45.502;9.146;2024-03-29T01:49:18;13.40;;;9.07;;
24644;SDS011;12780;45.502;9.146;2024-03-29T01:51:44;17.10;;;9.55;;
24644;SDS011;12780;45.502;9.146;2024-03-29T01:54:10;16.48;;;10.18;;
24644;SDS011;12780;45.502;9.146;2024-03-29T01:56:37;13.85;;;9.20;;
24644;SDS011;12780;45.502;9.146;2024-03-29T01:59:04;13.88;;;8.70;;
24644;SDS011;12780;45.502;9.146;2024-03-29T02:01:30;13.68;;;8.50;;
24644;SDS011;12780;45.502;9.146;2024-03-29T02:03:56;18.27;;;8.95;;
24644;SDS011;12780;45.502;9.146;2024-03-29T02:06:23;15.98;;;10.00;;
24644;SDS011;12780;45.502;9.146;2024-03-29T02:08:49;13.95;;;7.93;;
24644;SDS011;12780;45.502;9.146;2024-03-29T02:11:18;12.38;;;8.25;;
24644;SDS011;12780;45.502;9.146;2024-03-29T02:13:44;12.75;;;8.00;;
24644;SDS011;12780;45.502;9.146;2024-03-29T02:16:10;14.98;;;8.23;;
24644;SDS011;12780;45.502;9.146;2024-03-29T02:18:36;13.13;;;7.13;;
24644;SDS011;12780;45.502;9.146;2024-03-29T02:21:02;14.25;;;7.30;;
24644;SDS011;12780;45.502;9.146;2024-03-29T02:23:29;15.90;;;7.40;;
24644;SDS011;12780;45.502;9.146;2024-03-29T02:25:55;13.35;;;8.30;;
24644;SDS011;12780;45.502;9.146;2024-03-29T02:28:24;12.57;;;7.72;;
24644;SDS011;12780;45.502;9.146;2024-03-29T02:30:50;14.32;;;8.70;;
24644;SDS011;12780;45.502;9.146;2024-03-29T02:33:16;12.60;;;7.90;;
24644;SDS011;12780;45.502;9.146;2024-03-29T02:35:43;11.93;;;7.95;;
24644;SDS011;12780;45.502;9.146;2024-03-29T02:38:08;14.23;;;8.30;;
24644;SDS011;12780;45.502;9.146;2024-03-29T02:40:34;13.55;;;7.28;;
24644;SDS011;12780;45.502;9.146;2024-03-29T02:43:00;14.13;;;7.95;;
24644;SDS011;12780;45.502;9.146;2024-03-29T02:45:26;12.30;;;7.57;;
24644;SDS011;12780;45.502;9.146;2024-03-29T02:47:52;13.00;;;7.35;;
24644;SDS011;12780;45.502;9.146;2024-03-29T02:50:18;12.20;;;7.70;;
24644;SDS011;12780;45.502;9.146;2024-03-29T02:52:45;14.45;;;7.60;;
24644;SDS011;12780;45.502;9.146;2024-03-29T02:55:11;9.82;;;6.75;;
24644;SDS011;12780;45.502;9.146;2024-03-29T02:57:37;10.70;;;7.05;;
24644;SDS011;12780;45.502;9.146;2024-03-29T03:00:04;12.60;;;8.20;;
24644;SDS011;12780;45.502;9.146;2024-03-29T03:02:30;13.07;;;8.32;;
24644;SDS011;12780;45.502;9.146;2024-03-29T03:04:56;16.23;;;8.20;;
24644;SDS011;12780;45.502;9.146;2024-03-29T03:07:24;12.02;;;8.07;;
24644;SDS011;12780;45.502;9.146;2024-03-29T03:10:09;18.10;;;8.05;;
24644;SDS011;12780;45.502;9.146;2024-03-29T03:12:53;13.10;;;7.97;;
24644;SDS011;12780;45.502;9.146;2024-03-29T03:15:19;11.95;;;7.43;;
24644;SDS011;12780;45.502;9.146;2024-03-29T03:17:45;15.60;;;8.98;;
24644;SDS011;12780;45.502;9.146;2024-03-29T03:20:11;22.02;;;13.27;;
24644;SDS011;12780;45.502;9.146;2024-03-29T03:22:39;17.73;;;11.27;;
24644;SDS011;12780;45.502;9.146;2024-03-29T03:25:05;16.67;;;10.23;;
24644;SDS011;12780;45.502;9.146;2024-03-29T03:27:31;13.32;;;8.95;;
24644;SDS011;12780;45.502;9.146;2024-03-29T03:29:57;13.90;;;8.55;;
24644;SDS011;12780;45.502;9.146;2024-03-29T03:32:23;11.80;;;8.35;;
24644;SDS011;12780;45.502;9.146;2024-03-29T03:34:49;13.65;;;8.13;;
24644;SDS011;12780;45.502;9.146;2024-03-29T03:37:15;14.18;;;7.95;;
24644;SDS011;12780;45.502;9.146;2024-03-29T03:39:41;14.05;;;7.88;;
24644;SDS011;12780;45.502;9.146;2024-03-29T03:42:07;11.35;;;7.47;;
24644;SDS011;12780;45.502;9.146;2024-03-29T03:44:33;12.45;;;7.80;;
24644;SDS011;12780;45.502;9.146;2024-03-29T03:46:59;11.95;;;8.05;;
24644;SDS011;12780;45.502;9.146;2024-03-29T03:49:25;13.85;;;7.40;;
24644;SDS011;12780;45.502;9.146;2024-03-29T03:51:51;11.27;;;7.15;;
24644;SDS011;12780;45.502;9.146;2024-03-29T03:54:17;10.30;;;7.10;;
24644;SDS011;12780;45.502;9.146;2024-03-29T03:56:43;10.52;;;7.18;;
24644;SDS011;12780;45.502;9.146;2024-03-29T03:59:09;12.50;;;7.13;;
24644;SDS011;12780;45.502;9.146;2024-03-29T04:01:35;10.13;;;7.30;;
24644;SDS011;12780;45.502;9.146;2024-03-29T04:04:01;11.88;;;7.22;;
24644;SDS011;12780;45.502;9.146;2024-03-29T04:06:27;14.05;;;7.45;;
24644;SDS011;12780;45.502;9.146;2024-03-29T04:08:53;13.18;;;7.53;;
24644;SDS011;12780;45.502;9.146;2024-03-29T04:11:19;11.70;;;6.90;;
24644;SDS011;12780;45.502;9.146;2024-03-29T04:13:45;13.43;;;7.45;;
24644;SDS011;12780;45.502;9.146;2024-03-29T04:16:11;9.10;;;6.93;;
24644;SDS011;12780;45.502;9.146;2024-03-29T04:18:37;12.43;;;7.28;;
24644;SDS011;12780;45.502;9.146;2024-03-29T04:21:04;10.73;;;7.25;;
24644;SDS011;12780;45.502;9.146;2024-03-29T04:23:30;12.23;;;7.28;;
24644;SDS011;12780;45.502;9.146;2024-03-29T04:25:56;12.88;;;6.70;;
24644;SDS011;12780;45.502;9.146;2024-03-29T04:28:23;10.25;;;6.72;;
24644;SDS011;12780;45.502;9.146;2024-03-29T04:30:56;11.30;;;6.90;;
24644;SDS011;12780;45.502;9.146;2024-03-29T04:33:22;11.10;;;6.90;;
24644;SDS011;12780;45.502;9.146;2024-03-29T04:35:55;11.52;;;6.93;;
24644;SDS011;12780;45.502;9.146;2024-03-29T04:38:22;10.27;;;6.70;;
24644;SDS011;12780;45.502;9.146;2024-03-29T04:40:48;10.25;;;6.65;;
24644;SDS011;12780;45.502;9.146;2024-03-29T04:43:14;13.80;;;6.85;;
24644;SDS011;12780;45.502;9.146;2024-03-29T04:45:41;11.27;;;6.88;;
24644;SDS011;12780;45.502;9.146;2024-03-29T04:48:07;9.48;;;6.65;;
24644;SDS011;12780;45.502;9.146;2024-03-29T04:50:33;9.07;;;6.28;;
24644;SDS011;12780;45.502;9.146;2024-03-29T04:52:59;9.23;;;6.30;;
24644;SDS011;12780;45.502;9.146;2024-03-29T04:55:25;11.18;;;6.80;;
24644;SDS011;12780;45.502;9.146;2024-03-29T04:57:51;10.23;;;6.18;;
24644;SDS011;12780;45.502;9.146;2024-03-29T05:00:17;12.80;;;7.25;;
24644;SDS011;12780;45.502;9.146;2024-03-29T05:02:43;12.73;;;7.25;;
24644;SDS011;12780;45.502;9.146;2024-03-29T05:05:09;12.32;;;7.28;;
24644;SDS011;12780;45.502;9.146;2024-03-29T05:07:35;13.85;;;7.20;;
24644;SDS011;12780;45.502;9.146;2024-03-29T05:10:01;9.68;;;6.78;;
24644;SDS011;12780;45.502;9.146;2024-03-29T05:12:35;13.40;;;7.18;;
24644;SDS011;12780;45.502;9.146;2024-03-29T05:15:01;13.95;;;7.07;;
24644;SDS011;12780;45.502;9.146;2024-03-29T05:17:27;11.73;;;7.43;;
24644;SDS011;12780;45.502;9.146;2024-03-29T05:19:53;11.43;;;7.32;;
24644;SDS011;12780;45.502;9.146;2024-03-29T05:22:19;10.80;;;6.93;;
24644;SDS011;12780;45.502;9.146;2024-03-29T05:24:45;10.98;;;7.05;;
24644;SDS011;12780;45.502;9.146;2024-03-29T05:27:12;10.90;;;7.05;;
24644;SDS011;12780;45.502;9.146;2024-03-29T05:29:38;10.25;;;6.97;;
24644;SDS011;12780;45.502;9.146;2024-03-29T05:32:04;10.13;;;7.38;;
24644;SDS011;12780;45.502;9.146;2024-03-29T05:34:30;10.60;;;7.78;;
24644;SDS011;12780;45.502;9.146;2024-03-29T05:36:56;12.93;;;7.40;;
24644;SDS011;12780;45.502;9.146;2024-03-29T05:39:22;12.23;;;7.32;;
24644;SDS011;12780;45.502;9.146;2024-03-29T05:41:48;11.57;;;7.75;;
24644;SDS011;12780;45.502;9.146;2024-03-29T05:44:14;18.38;;;8.13;;
24644;SDS011;12780;45.502;9.146;2024-03-29T05:46:42;12.63;;;7.85;;
24644;SDS011;12780;45.502;9.146;2024-03-29T05:49:08;13.70;;;8.52;;
24644;SDS011;12780;45.502;9.146;2024-03-29T05:51:34;13.88;;;9.18;;
24644;SDS011;12780;45.502;9.146;2024-03-29T05:54:00;15.90;;;9.18;;
24644;SDS011;12780;45.502;9.146;2024-03-29T05:56:28;16.65;;;9.02;;
24644;SDS011;12780;45.502;9.146;2024-03-29T05:58:54;18.25;;;9.13;;
24644;SDS011;12780;45.502;9.146;2024-03-29T06:01:20;13.68;;;8.45;;
24644;SDS011;12780;45.502;9.146;2024-03-29T06:03:48;25.63;;;14.60;;
24644;SDS011;12780;45.502;9.146;2024-03-29T06:06:16;23.15;;;12.73;;
24644;SDS011;12780;45.502;9.146;2024-03-29T06:08:43;19.38;;;12.35;;
24644;SDS011;12780;45.502;9.146;2024-03-29T06:11:09;17.48;;;9.73;;
24644;SDS011;12780;45.502;9.146;2024-03-29T06:13:35;15.18;;;9.85;;
24644;SDS011;12780;45.502;9.146;2024-03-29T06:16:20;17.85;;;10.50;;
24644;SDS011;12780;45.502;9.146;2024-03-29T06:19:05;18.48;;;10.70;;
24644;SDS011;12780;45.502;9.146;2024-03-29T06:21:31;17.27;;;11.18;;
24644;SDS011;12780;45.502;9.146;2024-03-29T06:24:04;17.20;;;11.15;;
24644;SDS011;12780;45.502;9.146;2024-03-29T06:26:30;20.45;;;11.50;;
24644;SDS011;12780;45.502;9.146;2024-03-29T06:28:56;19.35;;;11.60;;
24644;SDS011;12780;45.502;9.146;2024-03-29T06:31:22;20.58;;;11.90;;
24644;SDS011;12780;45.502;9.146;2024-03-29T06:33:48;21.00;;;13.10;;
24644;SDS011;12780;45.502;9.146;2024-03-29T06:36:14;22.77;;;13.55;;
24644;SDS011;12780;45.502;9.146;2024-03-29T06:38:40;22.65;;;13.73;;
24644;SDS011;12780;45.502;9.146;2024-03-29T06:41:06;24.75;;;14.75;;
24644;SDS011;12780;45.502;9.146;2024-03-29T06:43:32;23.50;;;14.48;;
24644;SDS011;12780;45.502;9.146;2024-03-29T06:45:58;28.83;;;15.73;;
24644;SDS011;12780;45.502;9.146;2024-03-29T06:48:24;27.98;;;15.63;;
24644;SDS011;12780;45.502;9.146;2024-03-29T06:50:50;27.48;;;16.10;;
24644;SDS011;12780;45.502;9.146;2024-03-29T06:53:16;29.88;;;16.42;;
24644;SDS011;12780;45.502;9.146;2024-03-29T06:55:43;29.75;;;17.48;;
24644;SDS011;12780;45.502;9.146;2024-03-29T06:58:09;35.13;;;18.20;;
24644;SDS011;12780;45.502;9.146;2024-03-29T07:00:35;31.63;;;19.25;;
24644;SDS011;12780;45.502;9.146;2024-03-29T07:03:01;31.73;;;18.38;;
24644;SDS011;12780;45.502;9.146;2024-03-29T07:05:27;34.40;;;20.40;;
24644;SDS011;12780;45.502;9.146;2024-03-29T07:07:53;38.28;;;21.70;;
24644;SDS011;12780;45.502;9.146;2024-03-29T07:10:20;38.75;;;23.40;;
24644;SDS011;12780;45.502;9.146;2024-03-29T07:12:46;43.83;;;24.38;;
24644;SDS011;12780;45.502;9.146;2024-03-29T07:15:12;44.67;;;24.10;;
24644;SDS011;12780;45.502;9.146;2024-03-29T07:17:38;45.72;;;23.50;;
24644;SDS011;12780;45.502;9.146;2024-03-29T07:20:05;43.85;;;20.98;;
24644;SDS011;12780;45.502;9.146;2024-03-29T07:22:33;47.92;;;24.05;;
24644;SDS011;12780;45.502;9.146;2024-03-29T07:24:59;54.35;;;24.08;;
24644;SDS011;12780;45.502;9.146;2024-03-29T07:27:25;49.83;;;25.30;;
24644;SDS011;12780;45.502;9.146;2024-03-29T07:29:52;51.53;;;25.27;;
24644;SDS011;12780;45.502;9.146;2024-03-29T07:32:19;56.00;;;27.05;;
24644;SDS011;12780;45.502;9.146;2024-03-29T07:34:45;55.67;;;25.35;;
24644;SDS011;12780;45.502;9.146;2024-03-29T07:37:11;53.03;;;26.98;;
24644;SDS011;12780;45.502;9.146;2024-03-29T07:39:40;57.08;;;27.63;;
24644;SDS011;12780;45.502;9.146;2024-03-29T07:42:06;57.78;;;27.52;;
24644;SDS011;12780;45.502;9.146;2024-03-29T07:44:32;59.13;;;27.05;;
24644;SDS011;12780;45.502;9.146;2024-03-29T07:46:59;52.42;;;26.13;;
24644;SDS011;12780;45.502;9.146;2024-03-29T07:49:25;56.80;;;29.23;;
24644;SDS011;12780;45.502;9.146;2024-03-29T07:51:51;60.67;;;28.58;;
24644;SDS011;12780;45.502;9.146;2024-03-29T07:54:17;58.75;;;28.85;;
24644;SDS011;12780;45.502;9.146;2024-03-29T07:56:43;56.85;;;28.88;;
24644;SDS011;12780;45.502;9.146;2024-03-29T07:59:09;57.10;;;28.42;;
24644;SDS011;12780;45.502;9.146;2024-03-29T08:01:35;51.40;;;25.88;;
24644;SDS011;12780;45.502;9.146;2024-03-29T08:04:01;57.88;;;29.17;;
24644;SDS011;12780;45.502;9.146;2024-03-29T08:06:27;61.58;;;29.88;;
24644;SDS011;12780;45.502;9.146;2024-03-29T08:08:54;49.80;;;28.73;;
24644;SDS011;12780;45.502;9.146;2024-03-29T08:11:20;52.65;;;27.98;;
24644;SDS011;12780;45.502;9.146;2024-03-29T08:13:46;54.15;;;28.50;;
24644;SDS011;12780;45.502;9.146;2024-03-29T08:16:12;59.53;;;29.98;;
24644;SDS011;12780;45.502;9.146;2024-03-29T08:18:38;48.85;;;28.13;;
24644;SDS011;12780;45.502;9.146;2024-03-29T08:21:04;47.92;;;27.20;;
24644;SDS011;12780;45.502;9.146;2024-03-29T08:23:36;48.83;;;27.23;;
24644;SDS011;12780;45.502;9.146;2024-03-29T08:26:03;48.25;;;25.77;;
24644;SDS011;12780;45.502;9.146;2024-03-29T08:28:29;50.20;;;27.35;;
24644;SDS011;12780;45.502;9.146;2024-03-29T08:31:02;45.15;;;25.85;;
24644;SDS011;12780;45.502;9.146;2024-03-29T08:33:28;49.08;;;26.92;;
24644;SDS011;12780;45.502;9.146;2024-03-29T08:35:56;44.78;;;25.88;;
24644;SDS011;12780;45.502;9.146;2024-03-29T08:38:22;51.17;;;27.75;;
24644;SDS011;12780;45.502;9.146;2024-03-29T08:40:48;44.78;;;24.73;;
24644;SDS011;12780;45.502;9.146;2024-03-29T08:43:15;56.17;;;25.35;;
24644;SDS011;12780;45.502;9.146;2024-03-29T08:45:42;46.40;;;23.77;;
24644;SDS011;12780;45.502;9.146;2024-03-29T08:48:08;46.08;;;25.20;;
24644;SDS011;12780;45.502;9.146;2024-03-29T08:50:35;44.25;;;23.40;;
24644;SDS011;12780;45.502;9.146;2024-03-29T08:53:02;48.20;;;24.33;;
24644;SDS011;12780;45.502;9.146;2024-03-29T08:55:28;46.28;;;24.50;;
24644;SDS011;12780;45.502;9.146;2024-03-29T08:57:55;52.10;;;26.17;;
24644;SDS011;12780;45.502;9.146;2024-03-29T09:00:21;44.88;;;24.85;;
24644;SDS011;12780;45.502;9.146;2024-03-29T09:02:47;47.63;;;24.98;;
24644;SDS011;12780;45.502;9.146;2024-03-29T09:05:13;46.28;;;22.80;;
24644;SDS011;12780;45.502;9.146;2024-03-29T09:07:39;45.00;;;23.83;;
24644;SDS011;12780;45.502;9.146;2024-03-29T09:10:06;48.75;;;24.13;;
24644;SDS011;12780;45.502;9.146;2024-03-29T09:12:32;48.25;;;23.80;;
24644;SDS011;12780;45.502;9.146;2024-03-29T09:14:58;48.63;;;22.98;;
24644;SDS011;12780;45.502;9.146;2024-03-29T09:17:24;43.28;;;22.42;;
24644;SDS011;12780;45.502;9.146;2024-03-29T09:19:50;46.22;;;24.02;;
24644;SDS011;12780;45.502;9.146;2024-03-29T09:22:17;46.35;;;24.17;;
24644;SDS011;12780;45.502;9.146;2024-03-29T09:24:43;47.03;;;23.73;;
24644;SDS011;12780;45.502;9.146;2024-03-29T09:27:09;43.88;;;23.08;;
24644;SDS011;12780;45.502;9.146;2024-03-29T09:29:35;49.53;;;24.67;;
24644;SDS011;12780;45.502;9.146;2024-03-29T09:32:01;42.65;;;22.50;;
24644;SDS011;12780;45.502;9.146;2024-03-29T09:34:30;45.85;;;22.02;;
24644;SDS011;12780;45.502;9.146;2024-03-29T09:36:56;42.95;;;20.38;;
24644;SDS011;12780;45.502;9.146;2024-03-29T09:39:22;43.03;;;20.45;;
24644;SDS011;12780;45.502;9.146;2024-03-29T09:41:48;45.42;;;22.90;;
24644;SDS011;12780;45.502;9.146;2024-03-29T09:44:15;43.17;;;22.17;;
24644;SDS011;12780;45.502;9.146;2024-03-29T09:46:42;44.67;;;22.65;;
24644;SDS011;12780;45.502;9.146;2024-03-29T09:49:08;43.13;;;21.10;;
24644;SDS011;12780;45.502;9.146;2024-03-29T09:51:37;47.42;;;21.88;;
24644;SDS011;12780;45.502;9.146;2024-03-29T09:54:03;39.35;;;21.75;;
24644;SDS011;12780;45.502;9.146;2024-03-29T09:56:33;41.80;;;23.02;;
24644;SDS011;12780;45.502;9.146;2024-03-29T09:58:59;41.10;;;22.45;;
24644;SDS011;12780;45.502;9.146;2024-03-29T10:01:26;35.17;;;21.40;;
24644;SDS011;12780;45.502;9.146;2024-03-29T10:03:53;40.67;;;21.52;;
24644;SDS011;12780;45.502;9.146;2024-03-29T10:06:19;40.65;;;20.90;;
24644;SDS011;12780;45.502;9.146;2024-03-29T10:08:45;41.47;;;21.77;;
24644;SDS011;12780;45.502;9.146;2024-03-29T10:11:13;41.47;;;21.67;;
24644;SDS011;12780;45.502;9.146;2024-03-29T10:13:41;40.45;;;21.60;;
24644;SDS011;12780;45.502;9.146;2024-03-29T10:16:10;34.88;;;20.48;;
24644;SDS011;12780;45.502;9.146;2024-03-29T10:18:37;34.10;;;19.85;;
24644;SDS011;12780;45.502;9.146;2024-03-29T10:21:04;43.53;;;21.25;;
24644;SDS011;12780;45.502;9.146;2024-03-29T10:23:30;40.95;;;20.63;;
24644;SDS011;12780;45.502;9.146;2024-03-29T10:25:57;40.67;;;21.73;;
24644;SDS011;12780;45.502;9.146;2024-03-29T10:28:23;37.47;;;21.45;;
24644;SDS011;12780;45.502;9.146;2024-03-29T10:30:49;37.20;;;19.05;;
24644;SDS011;12780;45.502;9.146;2024-03-29T10:33:16;36.90;;;19.77;;
24644;SDS011;12780;45.502;9.146;2024-03-29T10:35:42;40.67;;;19.20;;
24644;SDS011;12780;45.502;9.146;2024-03-29T10:38:11;37.13;;;20.05;;
24644;SDS011;12780;45.502;9.146;2024-03-29T10:40:38;43.47;;;19.45;;
24644;SDS011;12780;45.502;9.146;2024-03-29T10:43:06;35.22;;;20.33;;
24644;SDS011;12780;45.502;9.146;2024-03-29T10:45:37;37.58;;;20.23;;
24644;SDS011;12780;45.502;9.146;2024-03-29T10:48:03;35.42;;;19.45;;
24644;SDS011;12780;45.502;9.146;2024-03-29T10:50:32;38.83;;;21.23;;
24644;SDS011;12780;45.502;9.146;2024-03-29T10:52:59;32.97;;;19.55;;
24644;SDS011;12780;45.502;9.146;2024-03-29T10:55:27;34.05;;;18.95;;
24644;SDS011;12780;45.502;9.146;2024-03-29T10:57:57;38.47;;;19.95;;
24644;SDS011;12780;45.502;9.146;2024-03-29T11:00:23;34.90;;;16.92;;
24644;SDS011;12780;45.502;9.146;2024-03-29T11:02:57;31.30;;;17.52;;
24644;SDS011;12780;45.502;9.146;2024-03-29T11:05:28;33.33;;;18.33;;
24644;SDS011;12780;45.502;9.146;2024-03-29T11:07:54;37.13;;;18.05;;
24644;SDS011;12780;45.502;9.146;2024-03-29T11:10:25;30.90;;;16.80;;
24644;SDS011;12780;45.502;9.146;2024-03-29T11:12:58;31.42;;;16.92;;
24644;SDS011;12780;45.502;9.146;2024-03-29T11:15:29;29.48;;;16.33;;
24644;SDS011;12780;45.502;9.146;2024-03-29T11:17:55;35.35;;;17.00;;
24644;SDS011;12780;45.502;9.146;2024-03-29T11:20:25;28.52;;;17.20;;
24644;SDS011;12780;45.502;9.146;2024-03-29T11:23:41;32.08;;;16.05;;
24644;SDS011;12780;45.502;9.146;2024-03-29T11:25:49;30.45;;;16.20;;
24644;SDS011;12780;45.502;9.146;2024-03-29T11:28:22;33.13;;;17.08;;
24644;SDS011;12780;45.502;9.146;2024-03-29T11:30:49;38.25;;;18.60;;
24644;SDS011;12780;45.502;9.146;2024-03-29T11:35:56;39.25;;;18.77;;
24644;SDS011;12780;45.502;9.146;2024-03-29T11:38:28;41.25;;;19.75;;
24644;SDS011;12780;45.502;9.146;2024-03-29T11:41:00;31.43;;;18.77;;
24644;SDS011;12780;45.502;9.146;2024-03-29T11:43:26;39.92;;;20.08;;
24644;SDS011;12780;45.502;9.146;2024-03-29T11:45:53;35.25;;;19.77;;
24644;SDS011;12780;45.502;9.146;2024-03-29T11:48:23;36.83;;;19.40;;
24644;SDS011;12780;45.502;9.146;2024-03-29T11:50:52;35.08;;;18.05;;
24644;SDS011;12780;45.502;9.146;2024-03-29T11:53:18;36.92;;;19.45;;
24644;SDS011;12780;45.502;9.146;2024-03-29T11:55:44;37.97;;;20.25;;
24644;SDS011;12780;45.502;9.146;2024-03-29T11:58:10;38.22;;;20.48;;
24644;SDS011;12780;45.502;9.146;2024-03-29T12:00:38;35.55;;;19.17;;
24644;SDS011;12780;45.502;9.146;2024-03-29T12:03:04;35.63;;;18.92;;
24644;SDS011;12780;45.502;9.146;2024-03-29T12:05:30;33.97;;;19.05;;
24644;SDS011;12780;45.502;9.146;2024-03-29T12:07:56;31.73;;;19.52;;
24644;SDS011;12780;45.502;9.146;2024-03-29T12:10:26;32.05;;;17.42;;
24644;SDS011;12780;45.502;9.146;2024-03-29T12:12:55;32.83;;;18.13;;
24644;SDS011;12780;45.502;9.146;2024-03-29T12:15:23;33.40;;;18.60;;
24644;SDS011;12780;45.502;9.146;2024-03-29T12:17:53;33.22;;;17.52;;
24644;SDS011;12780;45.502;9.146;2024-03-29T12:20:19;29.50;;;16.73;;
24644;SDS011;12780;45.502;9.146;2024-03-29T12:22:45;31.58;;;16.92;;
24644;SDS011;12780;45.502;9.146;2024-03-29T12:25:11;29.92;;;16.08;;
24644;SDS011;12780;45.502;9.146;2024-03-29T12:27:37;30.83;;;15.60;;
24644;SDS011;12780;45.502;9.146;2024-03-29T12:30:03;29.40;;;16.38;;
24644;SDS011;12780;45.502;9.146;2024-03-29T12:32:29;26.73;;;16.50;;
24644;SDS011;12780;45.502;9.146;2024-03-29T12:35:06;29.52;;;16.23;;
24644;SDS011;12780;45.502;9.146;2024-03-29T12:37:33;25.25;;;13.82;;
24644;SDS011;12780;45.502;9.146;2024-03-29T12:39:59;25.60;;;14.50;;
24644;SDS011;12780;45.502;9.146;2024-03-29T12:42:27;20.80;;;13.30;;
24644;SDS011;12780;45.502;9.146;2024-03-29T12:44:54;30.02;;;15.32;;
24644;SDS011;12780;45.502;9.146;2024-03-29T12:47:20;23.15;;;14.10;;
24644;SDS011;12780;45.502;9.146;2024-03-29T12:49:47;31.15;;;16.00;;
24644;SDS011;12780;45.502;9.146;2024-03-29T12:52:14;26.08;;;16.02;;
24644;SDS011;12780;45.502;9.146;2024-03-29T12:54:40;29.48;;;15.35;;
24644;SDS011;12780;45.502;9.146;2024-03-29T12:57:06;28.77;;;14.85;;
24644;SDS011;12780;45.502;9.146;2024-03-29T12:59:34;27.75;;;14.60;;
24644;SDS011;12780;45.502;9.146;2024-03-29T13:02:00;24.13;;;14.43;;
24644;SDS011;12780;45.502;9.146;2024-03-29T13:04:29;28.20;;;15.05;;
24644;SDS011;12780;45.502;9.146;2024-03-29T13:06:55;25.67;;;15.20;;
24644;SDS011;12780;45.502;9.146;2024-03-29T13:09:21;23.38;;;14.73;;
24644;SDS011;12780;45.502;9.146;2024-03-29T13:11:48;23.85;;;13.85;;
24644;SDS011;12780;45.502;9.146;2024-03-29T13:14:14;30.58;;;14.45;;
24644;SDS011;12780;45.502;9.146;2024-03-29T13:16:40;22.63;;;13.57;;
24644;SDS011;12780;45.502;9.146;2024-03-29T13:19:06;21.10;;;12.85;;
24644;SDS011;12780;45.502;9.146;2024-03-29T13:21:32;21.90;;;13.52;;
24644;SDS011;12780;45.502;9.146;2024-03-29T13:23:58;17.45;;;11.43;;
24644;SDS011;12780;45.502;9.146;2024-03-29T13:26:24;18.67;;;12.07;;
24644;SDS011;12780;45.502;9.146;2024-03-29T13:28:50;21.92;;;12.55;;
24644;SDS011;12780;45.502;9.146;2024-03-29T13:31:16;22.58;;;11.35;;
24644;SDS011;12780;45.502;9.146;2024-03-29T13:33:42;17.05;;;12.40;;
24644;SDS011;12780;45.502;9.146;2024-03-29T13:36:08;17.23;;;10.93;;
24644;SDS011;12780;45.502;9.146;2024-03-29T13:38:34;21.90;;;11.38;;
24644;SDS011;12780;45.502;9.146;2024-03-29T13:41:01;19.70;;;11.50;;
24644;SDS011;12780;45.502;9.146;2024-03-29T13:43:28;16.63;;;10.10;;
24644;SDS011;12780;45.502;9.146;2024-03-29T13:45:54;17.52;;;10.30;;
24644;SDS011;12780;45.502;9.146;2024-03-29T13:48:20;18.38;;;10.35;;
24644;SDS011;12780;45.502;9.146;2024-03-29T13:50:46;19.13;;;10.50;;
24644;SDS011;12780;45.502;9.146;2024-03-29T13:53:12;20.65;;;10.48;;
24644;SDS011;12780;45.502;9.146;2024-03-29T13:55:40;14.73;;;8.75;;
24644;SDS011;12780;45.502;9.146;2024-03-29T13:58:06;14.00;;;8.60;;
24644;SDS011;12780;45.502;9.146;2024-03-29T14:00:32;13.65;;;8.38;;
24644;SDS011;12780;45.502;9.146;2024-03-29T14:02:58;16.88;;;8.10;;
24644;SDS011;12780;45.502;9.146;2024-03-29T14:05:24;14.55;;;7.38;;
24644;SDS011;12780;45.502;9.146;2024-03-29T14:07:50;13.20;;;8.32;;
24644;SDS011;12780;45.502;9.146;2024-03-29T14:10:16;16.40;;;8.07;;
24644;SDS011;12780;45.502;9.146;2024-03-29T14:12:43;15.10;;;8.18;;
24644;SDS011;12780;45.502;9.146;2024-03-29T14:15:10;18.42;;;8.65;;
24644;SDS011;12780;45.502;9.146;2024-03-29T14:17:36;13.68;;;7.57;;
24644;SDS011;12780;45.502;9.146;2024-03-29T14:20:02;12.90;;;7.35;;
24644;SDS011;12780;45.502;9.146;2024-03-29T14:22:32;13.13;;;7.47;;
24644;SDS011;12780;45.502;9.146;2024-03-29T14:25:00;15.88;;;8.15;;
24644;SDS011;12780;45.502;9.146;2024-03-29T14:27:28;16.05;;;8.55;;
24644;SDS011;12780;45.502;9.146;2024-03-29T14:29:55;12.93;;;8.38;;